Weather at Kitty Hawk Estates Airport

Public forecast

Using degrees Fahrenheit for public forecast. Weather courtesy of forecast.io.

Closest aviation weather report (METAR) to Kitty Hawk Estates Airport

Closest report is Langlade County Airport, 5.0 nm (9.2 km) NW. Retrieved 2020/10/30 07:35 UTC (0 seconds ago):

KAIG 300735Z AUTO 36003KT 10SM OVC026 M02/M08 A3014 RMK AO2 T10251077

Closest aviation forecast (TAF) to Kitty Hawk Estates Airport

Closest forecast is Wausau Downtown Airport, 28.0 nm (51.9 km) WSW. Retrieved 2020/10/30 06:22 UTC (45 minutes ago):

TAF KAUW 300520Z 3006/3106 VRB03KT P6SM OVC035 FM301300 VRB03KT P6SM SCT045 BKN150 FM302000 27003KT P6SM SKC FM310200 15004KT P6SM SKC